KMSL

Northwest Alabama Regional Airport

Muscle Shoals, Alabama, USA
METAR KMSL 160953Z AUTO 15004KT 10SM CLR M05/M07 A3026 RMK AO2 SLP250 T10501067
Observed Flight Rules
Dec-16 @ 09:53 UTC (an hour ago) Visual Flight Rules
Wind Visibility Clouds
150° at 4 knots 10 miles
  • Clear skies
Temperatures Readings
Current -5°C / 23°F
Dewpoint -7°C / 19°F
Humidity 86%
Altimeter 30.26" Hg
Pressure 1025 hPa
Elevation 164
METAR KMSL 160953Z AUTO 15004KT 10SM CLR M05/M07 A3026 RMK AO2 SLP250 T10501067
Observed Flight Rules
Dec-16 @ 09:53 UTC
(an hour ago)
VFR
Wind Visibility
150° at 4 knots 10 miles
Clouds
  • Clear skies
Temperature Dewpoint
-5°C / 23°F -7°C / 19°F
Humidity Altimeter Pressure
86% 30.26" Hg 1025 hPa